Time;durP1;ratioP1;P1;durP2;ratioP2;P2;SDS_P1;SDS_P2;PMS_P1;PMS_P2;Temp;Humidity;BMP_temperature;BMP_pressure;BME280_temperature;BME280_humidity;BME280_pressure;Samples;Min_cycle;Max_cycle;Signal;HPM_P1;HPM_P2
2022/10/10 00:00:08;;;;;;;;;;;;;;;;;;2133176;27;20337;-43
2022/10/10 00:01:09;;;;;;;;;;;;;;;;;;2133234;27;20001;-43
2022/10/10 00:02:09;;;;;;;;;;;;;;;;;;2132977;27;19927;-43
2022/10/10 00:03:10;;;;;;;;;;;;;;;;;;2133153;27;19923;-43
2022/10/10 00:04:11;;;;;;;;;;;;;;;;;;2133013;27;19999;-43
2022/10/10 00:05:12;;;;;;;;;;;;;;;;;;2133073;27;19923;-42
2022/10/10 00:06:13;;;;;;;;;;;;;;;;;;2133006;27;19975;-43
2022/10/10 00:07:14;;;;;;;;;;;;;;;;;;2133119;27;19984;-43
2022/10/10 00:08:14;;;;;;;;;;;;;;;;;;2133183;27;19923;-43
2022/10/10 00:09:15;;;;;;;;;;;;;;;;;;2133140;27;19979;-43
2022/10/10 00:10:16;;;;;;;;;;;;;;;;;;2133027;27;20335;-43
2022/10/10 00:11:17;;;;;;;;;;;;;;;;;;2132734;27;19927;-43
2022/10/10 00:12:18;;;;;;;;;;;;;;;;;;2133064;27;19931;-43
2022/10/10 00:13:18;;;;;;;;;;;;;;;;;;2133145;27;19973;-43
2022/10/10 00:14:19;;;;;;;;;;;;;;;;;;2133147;27;20256;-43
2022/10/10 00:15:20;;;;;;;;;;;;;;;;;;2132911;27;20401;-43
2022/10/10 00:16:21;;;;;;;;;;;;;;;;;;2132908;27;19966;-43
2022/10/10 00:17:22;;;;;;;;;;;;;;;;;;2132940;27;19923;-43
2022/10/10 00:18:23;;;;;;;;;;;;;;;;;;2132942;27;19930;-43
2022/10/10 00:19:23;;;;;;;;;;;;;;;;;;2132910;27;19975;-43
2022/10/10 00:20:24;;;;;;;;;;;;;;;;;;2133044;27;19969;-43
2022/10/10 00:21:25;;;;;;;;;;;;;;;;;;2133079;27;20352;-45
2022/10/10 00:22:26;;;;;;;;;;;;;;;;;;2133233;27;19932;-46
2022/10/10 00:23:26;;;;;;;;;;;;;;;;;;2132933;27;19923;-46
2022/10/10 00:24:27;;;;;;;;;;;;;;;;;;2132787;27;19923;-45
2022/10/10 00:25:28;;;;;;;;;;;;;;;;;;2133041;27;20010;-46
2022/10/10 00:26:29;;;;;;;;;;;;;;;;;;2132840;27;20359;-45
2022/10/10 00:27:30;;;;;;;;;;;;;;;;;;2132848;27;20355;-46
2022/10/10 00:28:31;;;;;;;;;;;;;;;;;;2132954;27;19930;-46
2022/10/10 00:29:31;;;;;;;;;;;;;;;;;;2133185;27;19969;-43
2022/10/10 00:30:32;;;;;;;;;;;;;;;;;;2132907;27;20397;-43
2022/10/10 00:31:33;;;;;;;;;;;;;;;;;;2132817;27;19963;-43
2022/10/10 00:32:34;;;;;;;;;;;;;;;;;;2132946;27;19923;-43
2022/10/10 00:33:35;;;;;;;;;;;;;;;;;;2132764;27;20292;-43
2022/10/10 00:34:36;;;;;;;;;;;;;;;;;;2132937;27;20399;-43
2022/10/10 00:35:36;;;;;;;;;;;;;;;;;;2132826;27;19923;-43
2022/10/10 00:36:37;;;;;;;;;;;;;;;;;;2132823;27;19967;-43
2022/10/10 00:37:38;;;;;;;;;;;;;;;;;;2132841;27;19959;-43
2022/10/10 00:38:39;;;;;;;;;;;;;;;;;;2132774;27;20326;-43
2022/10/10 00:39:39;;;;;;;;;;;;;;;;;;2132717;27;19927;-43
2022/10/10 00:40:40;;;;;;;;;;;;;;;;;;2132901;27;19958;-43
2022/10/10 00:41:41;;;;;;;;;;;;;;;;;;2132933;27;20004;-44
2022/10/10 00:42:42;;;;;;;;;;;;;;;;;;2132739;27;19998;-43
2022/10/10 00:43:43;;;;;;;;;;;;;;;;;;2132764;27;19923;-43
2022/10/10 00:44:44;;;;;;;;;;;;;;;;;;2132746;27;20021;-43
2022/10/10 00:45:44;;;;;;;;;;;;;;;;;;2132857;27;19923;-43
2022/10/10 00:46:45;;;;;;;;;;;;;;;;;;2132717;27;20413;-46
2022/10/10 00:47:46;;;;;;;;;;;;;;;;;;2132934;27;19927;-46
2022/10/10 00:48:47;;;;;;;;;;;;;;;;;;2132695;27;19970;-46
2022/10/10 00:49:48;;;;;;;;;;;;;;;;;;2132686;27;19923;-46
2022/10/10 00:50:48;;;;;;;;;;;;;;;;;;2132707;27;19927;-45
2022/10/10 00:51:49;;;;;;;;;;;;;;;;;;2132761;27;19930;-45
2022/10/10 00:52:50;;;;;;;;;;;;;;;;;;2132912;27;19930;-46
2022/10/10 00:53:51;;;;;;;;;;;;;;;;;;2132757;27;20022;-47
2022/10/10 00:54:52;;;;;;;;;;;;;;;;;;2132763;27;20018;-45
2022/10/10 00:55:53;;;;;;;;;;;;;;;;;;2132894;27;19923;-42
2022/10/10 00:56:54;;;;;;;;;;;;;;;;;;2132601;27;19946;-43
2022/10/10 00:57:54;;;;;;;;;;;;;;;;;;2132594;27;20283;-43
2022/10/10 00:58:55;;;;;;;;;;;;;;;;;;2132655;27;19934;-43
2022/10/10 00:59:56;;;;;;;;;;;;;;;;;;2132859;27;19923;-43
2022/10/10 01:00:57;;;;;;;;;;;;;;;;;;2132746;27;19923;-43
2022/10/10 01:01:58;;;;;;;;;;;;;;;;;;2132569;27;19935;-43
2022/10/10 01:02:58;;;;;;;;;;;;;;;;;;2132806;27;19923;-43
2022/10/10 01:03:59;;;;;;;;;;;;;;;;;;2132587;27;19984;-43
2022/10/10 01:05:00;;;;;;;;;;;;;;;;;;2132820;27;19923;-45
2022/10/10 01:06:01;;;;;;;;;;;;;;;;;;2132872;27;20036;-46
2022/10/10 01:07:02;;;;;;;;;;;;;;;;;;2132500;27;20273;-46
2022/10/10 01:08:03;;;;;;;;;;;;;;;;;;2131853;27;19927;-45
2022/10/10 01:09:03;;;;;;;;;;;;;;;;;;2132098;27;19971;-46
2022/10/10 01:10:04;;;;;;;;;;;;;;;;;;2132871;27;19956;-47
2022/10/10 01:11:05;;;;;;;;;;;;;;;;;;2132343;27;19933;-46
2022/10/10 01:12:06;;;;;;;;;;;;;;;;;;2132658;27;20411;-45
2022/10/10 01:13:06;;;;;;;;;;;;;;;;;;2132625;27;19930;-45
2022/10/10 01:14:07;;;;;;;;;;;;;;;;;;2132785;27;20380;-46
2022/10/10 01:15:08;;;;;;;;;;;;;;;;;;2132662;27;19946;-46
2022/10/10 01:16:09;;;;;;;;;;;;;;;;;;2132518;27;19923;-46
2022/10/10 01:17:10;;;;;;;;;;;;;;;;;;2132605;27;19924;-45
2022/10/10 01:18:11;;;;;;;;;;;;;;;;;;2132507;27;19923;-46
2022/10/10 01:19:11;;;;;;;;;;;;;;;;;;2132614;27;20304;-45
2022/10/10 01:20:12;;;;;;;;;;;;;;;;;;2132431;27;20357;-45
2022/10/10 01:21:13;;;;;;;;;;;;;;;;;;2132618;27;19923;-46
2022/10/10 01:22:14;;;;;;;;;;;;;;;;;;2132369;27;19923;-45
2022/10/10 01:23:14;;;;;;;;;;;;;;;;;;2132629;27;19923;-45
2022/10/10 01:24:15;;;;;;;;;;;;;;;;;;2132477;27;19971;-46
2022/10/10 01:25:16;;;;;;;;;;;;;;;;;;2132489;27;19950;-45
2022/10/10 01:26:17;;;;;;;;;;;;;;;;;;2132611;27;19989;-45
2022/10/10 01:27:18;;;;;;;;;;;;;;;;;;2132354;27;19931;-45
2022/10/10 01:28:19;;;;;;;;;;;;;;;;;;2132596;27;19923;-45
2022/10/10 01:29:19;;;;;;;;;;;;;;;;;;2132467;27;20300;-46
2022/10/10 01:30:20;;;;;;;;;;;;;;;;;;2132563;27;19934;-45
2022/10/10 01:31:21;;;;;;;;;;;;;;;;;;2132462;27;19923;-43
2022/10/10 01:32:22;;;;;;;;;;;;;;;;;;2132480;27;20013;-43
2022/10/10 01:33:23;;;;;;;;;;;;;;;;;;2132488;27;20000;-43
2022/10/10 01:34:24;;;;;;;;;;;;;;;;;;2132397;27;19923;-43
2022/10/10 01:35:24;;;;;;;;;;;;;;;;;;2132417;27;19930;-43
2022/10/10 01:36:25;;;;;;;;;;;;;;;;;;2132238;27;19927;-43
2022/10/10 01:37:26;;;;;;;;;;;;;;;;;;2132386;27;19931;-43
2022/10/10 01:38:27;;;;;;;;;;;;;;;;;;2132390;27;19931;-43
2022/10/10 01:39:27;;;;;;;;;;;;;;;;;;2132458;27;19927;-43
2022/10/10 01:40:29;;;;;;;;;;;;;;;;;;2132422;27;19930;-43
2022/10/10 01:41:29;;;;;;;;;;;;;;;;;;2132306;27;19923;-43
2022/10/10 01:42:30;;;;;;;;;;;;;;;;;;2132426;27;20371;-43
2022/10/10 01:43:31;;;;;;;;;;;;;;;;;;2132165;27;19923;-43
2022/10/10 01:44:32;;;;;;;;;;;;;;;;;;2132519;27;20010;-43
2022/10/10 01:45:32;;;;;;;;;;;;;;;;;;2132477;27;20315;-43
2022/10/10 01:46:33;;;;;;;;;;;;;;;;;;2132328;27;20140;-43
2022/10/10 01:47:34;;;;;;;;;;;;;;;;;;2132338;27;19923;-43
2022/10/10 01:48:35;;;;;;;;;;;;;;;;;;2132289;27;19927;-43
2022/10/10 01:49:36;;;;;;;;;;;;;;;;;;2132297;27;19952;-43
2022/10/10 01:50:37;;;;;;;;;;;;;;;;;;2132309;27;19966;-43
2022/10/10 01:51:38;;;;;;;;;;;;;;;;;;2132108;27;20371;-43
2022/10/10 01:52:39;;;;;;;;;;;;;;;;;;2132399;27;19929;-43
2022/10/10 01:53:39;;;;;;;;;;;;;;;;;;2132261;27;20026;-43
2022/10/10 01:54:40;;;;;;;;;;;;;;;;;;2132404;27;20033;-43
2022/10/10 01:55:41;;;;;;;;;;;;;;;;;;2132311;27;19923;-43
2022/10/10 01:56:42;;;;;;;;;;;;;;;;;;2132194;27;19992;-43
2022/10/10 01:57:43;;;;;;;;;;;;;;;;;;2132395;27;19946;-43
2022/10/10 01:58:44;;;;;;;;;;;;;;;;;;2132219;27;20276;-43
2022/10/10 01:59:44;;;;;;;;;;;;;;;;;;2132330;27;19923;-42
2022/10/10 02:00:45;;;;;;;;;;;;;;;;;;2132276;27;19923;-42
2022/10/10 02:01:46;;;;;;;;;;;;;;;;;;2132267;27;19927;-43
2022/10/10 02:02:47;;;;;;;;;;;;;;;;;;2132348;27;20367;-43
2022/10/10 02:03:48;;;;;;;;;;;;;;;;;;2132193;27;20398;-43
2022/10/10 02:04:49;;;;;;;;;;;;;;;;;;2132200;27;19962;-43
2022/10/10 02:05:49;;;;;;;;;;;;;;;;;;2132183;27;19923;-43
2022/10/10 02:06:50;;;;;;;;;;;;;;;;;;2132237;27;20427;-43
2022/10/10 02:07:51;;;;;;;;;;;;;;;;;;2132339;27;19971;-43
2022/10/10 02:08:52;;;;;;;;;;;;;;;;;;2132375;27;19968;-43
2022/10/10 02:09:52;;;;;;;;;;;;;;;;;;2132232;27;20341;-43
2022/10/10 02:10:53;;;;;;;;;;;;;;;;;;2132226;27;20362;-43
2022/10/10 02:11:54;;;;;;;;;;;;;;;;;;2131931;27;19923;-43
2022/10/10 02:12:55;;;;;;;;;;;;;;;;;;2132112;27;19927;-43
2022/10/10 02:13:56;;;;;;;;;;;;;;;;;;2132198;27;20330;-42
2022/10/10 02:14:57;;;;;;;;;;;;;;;;;;2132430;27;20063;-43
2022/10/10 02:15:57;;;;;;;;;;;;;;;;;;2132172;27;19923;-43
2022/10/10 02:16:58;;;;;;;;;;;;;;;;;;2132056;27;20025;-43
2022/10/10 02:17:59;;;;;;;;;;;;;;;;;;2132130;27;19924;-43
2022/10/10 02:19:00;;;;;;;;;;;;;;;;;;2132122;27;19975;-43
2022/10/10 02:20:01;;;;;;;;;;;;;;;;;;2131802;27;19923;-43
2022/10/10 02:21:01;;;;;;;;;;;;;;;;;;2132338;27;20075;-46
2022/10/10 02:22:02;;;;;;;;;;;;;;;;;;2131990;27;19923;-45
2022/10/10 02:23:03;;;;;;;;;;;;;;;;;;2132054;27;19923;-46
2022/10/10 02:24:04;;;;;;;;;;;;;;;;;;2132212;27;19923;-45
2022/10/10 02:25:05;;;;;;;;;;;;;;;;;;2132064;27;20365;-45
2022/10/10 02:26:06;;;;;;;;;;;;;;;;;;2132236;27;19933;-46
2022/10/10 02:27:06;;;;;;;;;;;;;;;;;;2132149;27;20451;-47
2022/10/10 02:28:07;;;;;;;;;;;;;;;;;;2132042;27;20295;-46
2022/10/10 02:29:08;;;;;;;;;;;;;;;;;;2132173;27;19923;-45
2022/10/10 02:30:09;;;;;;;;;;;;;;;;;;2132017;27;19954;-45
2022/10/10 02:31:10;;;;;;;;;;;;;;;;;;2132249;27;19930;-43
2022/10/10 02:32:11;;;;;;;;;;;;;;;;;;2132097;27;20371;-43
2022/10/10 02:33:11;;;;;;;;;;;;;;;;;;2132037;27;19973;-43
2022/10/10 02:34:12;;;;;;;;;;;;;;;;;;2132120;27;19929;-43
2022/10/10 02:35:13;;;;;;;;;;;;;;;;;;2132144;27;20304;-43
2022/10/10 02:36:14;;;;;;;;;;;;;;;;;;2131991;27;19967;-43
2022/10/10 02:37:14;;;;;;;;;;;;;;;;;;2131928;27;19923;-43
2022/10/10 02:38:15;;;;;;;;;;;;;;;;;;2132025;27;19979;-43
2022/10/10 02:39:16;;;;;;;;;;;;;;;;;;2131909;27;19927;-43
2022/10/10 02:40:17;;;;;;;;;;;;;;;;;;2132011;27;20125;-43
2022/10/10 02:41:18;;;;;;;;;;;;;;;;;;2131954;27;19923;-43
2022/10/10 02:42:18;;;;;;;;;;;;;;;;;;2132049;27;20010;-43
2022/10/10 02:43:19;;;;;;;;;;;;;;;;;;2132067;27;20153;-43
2022/10/10 02:44:20;;;;;;;;;;;;;;;;;;2132104;27;20014;-43
2022/10/10 02:45:21;;;;;;;;;;;;;;;;;;2131930;27;19978;-43
2022/10/10 02:46:22;;;;;;;;;;;;;;;;;;2131853;27;19966;-43
2022/10/10 02:47:22;;;;;;;;;;;;;;;;;;2131973;27;20406;-43
2022/10/10 02:48:23;;;;;;;;;;;;;;;;;;2131919;27;19965;-43
2022/10/10 02:49:24;;;;;;;;;;;;;;;;;;2132286;27;19930;-45
2022/10/10 02:50:25;;;;;;;;;;;;;;;;;;2132159;27;20290;-43
2022/10/10 02:51:26;;;;;;;;;;;;;;;;;;2131805;27;20049;-43
2022/10/10 02:52:31;;;;;;;;;;;;;;;;;;2132021;27;19958;-43
2022/10/10 02:53:31;;;;;;;;;;;;;;;;;;2132039;27;19930;-41
2022/10/10 02:54:32;;;;;;;;;;;;;;;;;;2131956;27;19923;-41
2022/10/10 02:55:33;;;;;;;;;;;;;;;;;;2131917;27;20022;-42
2022/10/10 02:56:34;;;;;;;;;;;;;;;;;;2131805;27;19982;-43
2022/10/10 02:57:34;;;;;;;;;;;;;;;;;;2131884;27;19923;-43
2022/10/10 02:58:35;;;;;;;;;;;;;;;;;;2132050;27;20405;-42
2022/10/10 02:59:36;;;;;;;;;;;;;;;;;;2131874;27;19950;-42
2022/10/10 03:00:37;;;;;;;;;;;;;;;;;;2131971;27;19923;-43
2022/10/10 03:01:38;;;;;;;;;;;;;;;;;;2131993;27;19927;-42
2022/10/10 03:02:39;;;;;;;;;;;;;;;;;;2132201;27;19923;-45
2022/10/10 03:03:39;;;;;;;;;;;;;;;;;;2132102;27;20396;-45
2022/10/10 03:04:41;;;;;;;;;;;;;;;;;;2131852;27;19923;-45
2022/10/10 03:05:41;;;;;;;;;;;;;;;;;;2131913;27;19923;-46
2022/10/10 03:06:42;;;;;;;;;;;;;;;;;;2131960;27;20318;-45
2022/10/10 03:07:43;;;;;;;;;;;;;;;;;;2131967;27;19927;-45
2022/10/10 03:08:44;;;;;;;;;;;;;;;;;;2131775;27;19974;-46
2022/10/10 03:09:45;;;;;;;;;;;;;;;;;;2131886;27;19995;-46
2022/10/10 03:10:46;;;;;;;;;;;;;;;;;;2131838;27;20030;-46
2022/10/10 03:11:46;;;;;;;;;;;;;;;;;;2131499;27;19938;-46
2022/10/10 03:12:47;;;;;;;;;;;;;;;;;;2131855;27;19929;-43
2022/10/10 03:13:48;;;;;;;;;;;;;;;;;;2131855;27;20383;-43
2022/10/10 03:14:49;;;;;;;;;;;;;;;;;;2131937;27;19927;-43
2022/10/10 03:15:50;;;;;;;;;;;;;;;;;;2131818;27;19943;-43
2022/10/10 03:16:51;;;;;;;;;;;;;;;;;;2131747;27;20014;-43
2022/10/10 03:17:52;;;;;;;;;;;;;;;;;;2131893;27;19923;-43
2022/10/10 03:18:53;;;;;;;;;;;;;;;;;;2131869;27;19976;-43
2022/10/10 03:19:54;;;;;;;;;;;;;;;;;;2131721;27;19923;-43
2022/10/10 03:20:55;;;;;;;;;;;;;;;;;;2131903;27;19930;-43
2022/10/10 03:21:55;;;;;;;;;;;;;;;;;;2131716;27;19938;-43
2022/10/10 03:22:56;;;;;;;;;;;;;;;;;;2131873;27;19970;-42
2022/10/10 03:23:57;;;;;;;;;;;;;;;;;;2131769;27;20272;-43
2022/10/10 03:24:58;;;;;;;;;;;;;;;;;;2131730;27;20391;-43
2022/10/10 03:25:59;;;;;;;;;;;;;;;;;;2131686;27;19923;-43
2022/10/10 03:27:00;;;;;;;;;;;;;;;;;;2131810;27;19923;-43
2022/10/10 03:28:00;;;;;;;;;;;;;;;;;;2131718;27;20314;-43
2022/10/10 03:29:01;;;;;;;;;;;;;;;;;;2131630;27;20021;-42
2022/10/10 03:30:02;;;;;;;;;;;;;;;;;;2131754;27;19923;-43
2022/10/10 03:31:03;;;;;;;;;;;;;;;;;;2131600;27;20348;-42
2022/10/10 03:32:03;;;;;;;;;;;;;;;;;;2132747;27;19923;-43
2022/10/10 03:33:08;;;;;;;;;;;;;;;;;;2133152;27;20269;-42
2022/10/10 03:34:09;;;;;;;;;;;;;;;;;;2133248;27;19964;-43
2022/10/10 03:35:10;;;;;;;;;;;;;;;;;;2133139;27;19931;-43
2022/10/10 03:36:10;;;;;;;;;;;;;;;;;;2132995;27;19964;-43
2022/10/10 03:37:11;;;;;;;;;;;;;;;;;;2133056;27;19924;-42
2022/10/10 03:38:12;;;;;;;;;;;;;;;;;;2133234;27;20429;-42
2022/10/10 03:39:13;;;;;;;;;;;;;;;;;;2133344;27;20334;-43
2022/10/10 03:40:13;;;;;;;;;;;;;;;;;;2133174;27;19972;-42
2022/10/10 03:41:14;;;;;;;;;;;;;;;;;;2133264;27;20026;-43
2022/10/10 03:42:15;;;;;;;;;;;;;;;;;;2133095;27;20161;-42
2022/10/10 03:43:16;;;;;;;;;;;;;;;;;;2133377;27;19927;-46
2022/10/10 03:44:17;;;;;;;;;;;;;;;;;;2133125;27;19931;-45
2022/10/10 03:45:18;;;;;;;;;;;;;;;;;;2133332;27;19923;-45
2022/10/10 03:46:19;;;;;;;;;;;;;;;;;;2133062;27;19930;-45
2022/10/10 03:47:20;;;;;;;;;;;;;;;;;;2133050;27;19927;-45
2022/10/10 03:48:21;;;;;;;;;;;;;;;;;;2133291;27;19972;-47
2022/10/10 03:49:22;;;;;;;;;;;;;;;;;;2133406;27;20017;-42
2022/10/10 03:50:22;;;;;;;;;;;;;;;;;;2133238;27;19930;-42
2022/10/10 03:51:23;;;;;;;;;;;;;;;;;;2132909;27;19969;-42
2022/10/10 03:52:24;;;;;;;;;;;;;;;;;;2133304;27;19923;-42
2022/10/10 03:53:25;;;;;;;;;;;;;;;;;;2133056;27;19923;-42
2022/10/10 03:54:26;;;;;;;;;;;;;;;;;;2133071;27;19966;-42
2022/10/10 03:55:27;;;;;;;;;;;;;;;;;;2133085;27;19978;-42
2022/10/10 03:56:27;;;;;;;;;;;;;;;;;;2133159;27;19923;-42
2022/10/10 03:57:29;;;;;;;;;;;;;;;;;;2133158;27;19985;-42
2022/10/10 03:58:30;;;;;;;;;;;;;;;;;;2133160;27;19923;-42
2022/10/10 03:59:31;;;;;;;;;;;;;;;;;;2133100;27;19923;-42
2022/10/10 04:00:32;;;;;;;;;;;;;;;;;;2133025;27;20072;-42
2022/10/10 04:01:33;;;;;;;;;;;;;;;;;;2132988;27;19923;-42
2022/10/10 04:02:33;;;;;;;;;;;;;;;;;;2133039;27;20333;-42
2022/10/10 04:03:34;;;;;;;;;;;;;;;;;;2133534;27;19958;-45
2022/10/10 04:04:35;;;;;;;;;;;;;;;;;;2133123;27;20273;-46
2022/10/10 04:05:36;;;;;;;;;;;;;;;;;;2133050;27;19927;-46
2022/10/10 04:06:37;;;;;;;;;;;;;;;;;;2132888;27;19930;-45
2022/10/10 04:07:40;;;;;;;;;;;;;;;;;;2133060;27;19923;-44
2022/10/10 04:08:40;;;;;;;;;;;;;;;;;;2130023;27;19930;-45
2022/10/10 04:09:42;;;;;;;;;;;;;;;;;;2124563;28;19967;-44
2022/10/10 04:10:43;;;;;;;;;;;;;;;;;;2124572;28;20275;-45
2022/10/10 04:11:44;;;;;;;;;;;;;;;;;;2130086;27;19929;-42
2022/10/10 04:12:46;;;;;;;;;;;;;;;;;;2133175;27;20392;-42
2022/10/10 04:13:47;;;;;;;;;;;;;;;;;;2133369;27;19987;-42
2022/10/10 04:14:47;;;;;;;;;;;;;;;;;;2133373;27;19923;-42
2022/10/10 04:15:48;;;;;;;;;;;;;;;;;;2132941;27;19930;-42
2022/10/10 04:16:49;;;;;;;;;;;;;;;;;;2132895;27;20384;-42
2022/10/10 04:17:50;;;;;;;;;;;;;;;;;;2133004;27;19923;-42
2022/10/10 04:18:50;;;;;;;;;;;;;;;;;;2133011;27;20291;-42
2022/10/10 04:19:51;;;;;;;;;;;;;;;;;;2133202;27;20018;-42
2022/10/10 04:20:52;;;;;;;;;;;;;;;;;;2133140;27;19930;-42
2022/10/10 04:21:53;;;;;;;;;;;;;;;;;;2133204;27;19923;-45
2022/10/10 04:22:54;;;;;;;;;;;;;;;;;;2132878;27;20010;-45
2022/10/10 04:23:55;;;;;;;;;;;;;;;;;;2133091;27;19923;-43
2022/10/10 04:24:55;;;;;;;;;;;;;;;;;;2133037;27;19973;-43
2022/10/10 04:25:56;;;;;;;;;;;;;;;;;;2133010;27;19927;-43
2022/10/10 04:26:57;;;;;;;;;;;;;;;;;;2132869;27;19929;-43
2022/10/10 04:27:58;;;;;;;;;;;;;;;;;;2132835;27;19927;-43
2022/10/10 04:29:01;;;;;;;;;;;;;;;;;;2132904;27;19923;-43
2022/10/10 04:30:02;;;;;;;;;;;;;;;;;;2132986;27;19953;-42
2022/10/10 04:31:03;;;;;;;;;;;;;;;;;;2132776;27;19962;-43
2022/10/10 04:32:04;;;;;;;;;;;;;;;;;;2132538;27;19923;-43
2022/10/10 04:33:04;;;;;;;;;;;;;;;;;;2132920;27;20092;-43
2022/10/10 04:34:05;;;;;;;;;;;;;;;;;;2132967;27;19923;-46
2022/10/10 04:35:06;;;;;;;;;;;;;;;;;;2132797;27;19971;-45
2022/10/10 04:36:07;;;;;;;;;;;;;;;;;;2133038;27;19972;-43
2022/10/10 04:37:08;;;;;;;;;;;;;;;;;;2132926;27;19976;-45
2022/10/10 04:38:09;;;;;;;;;;;;;;;;;;2132973;27;20332;-43
2022/10/10 04:39:10;;;;;;;;;;;;;;;;;;2133078;27;19923;-43
2022/10/10 04:40:11;;;;;;;;;;;;;;;;;;2133064;27;19930;-42
2022/10/10 04:41:11;;;;;;;;;;;;;;;;;;2132958;27;19923;-46
2022/10/10 04:42:12;;;;;;;;;;;;;;;;;;2132669;27;19923;-45
2022/10/10 04:43:13;;;;;;;;;;;;;;;;;;2132688;27;19927;-42
2022/10/10 04:44:14;;;;;;;;;;;;;;;;;;2133092;27;20287;-46
2022/10/10 04:45:14;;;;;;;;;;;;;;;;;;2132747;27;19923;-46
2022/10/10 04:46:15;;;;;;;;;;;;;;;;;;2133109;27;19923;-45
2022/10/10 04:47:16;;;;;;;;;;;;;;;;;;2132729;27;19923;-45
2022/10/10 04:48:17;;;;;;;;;;;;;;;;;;2132691;27;20024;-46
2022/10/10 04:49:18;;;;;;;;;;;;;;;;;;2132797;27;19931;-45
2022/10/10 04:50:19;;;;;;;;;;;;;;;;;;2133050;27;19923;-45
2022/10/10 04:51:20;;;;;;;;;;;;;;;;;;2132861;27;19923;-42
2022/10/10 04:52:20;;;;;;;;;;;;;;;;;;2132634;27;19956;-43
2022/10/10 04:53:21;;;;;;;;;;;;;;;;;;2132999;27;19923;-46
2022/10/10 04:54:22;;;;;;;;;;;;;;;;;;2133140;27;20169;-43
2022/10/10 04:55:23;;;;;;;;;;;;;;;;;;2132799;27;20062;-42
2022/10/10 04:56:23;;;;;;;;;;;;;;;;;;2132548;27;20015;-43
2022/10/10 04:57:24;;;;;;;;;;;;;;;;;;2132877;27;19923;-45
2022/10/10 04:58:25;;;;;;;;;;;;;;;;;;2132898;27;19923;-42
2022/10/10 04:59:26;;;;;;;;;;;;;;;;;;2132604;27;19996;-43
2022/10/10 05:00:27;;;;;;;;;;;;;;;;;;2132743;27;19923;-43
2022/10/10 05:01:28;;;;;;;;;;;;;;;;;;2132624;27;19923;-43
2022/10/10 05:02:28;;;;;;;;;;;;;;;;;;2132757;27;19930;-43
2022/10/10 05:03:29;;;;;;;;;;;;;;;;;;2132703;27;19923;-43
2022/10/10 05:04:30;;;;;;;;;;;;;;;;;;2132602;27;19924;-42
2022/10/10 05:05:31;;;;;;;;;;;;;;;;;;2124587;27;19968;-42
2022/10/10 05:06:32;;;;;;;;;;;;;;;;;;2124131;27;19923;-43
2022/10/10 05:07:33;;;;;;;;;;;;;;;;;;2124648;28;19972;-45
2022/10/10 05:08:33;;;;;;;;;;;;;;;;;;2124021;28;19931;-45
2022/10/10 05:09:34;;;;;;;;;;;;;;;;;;2124142;28;20010;-45
2022/10/10 05:10:36;;;;;;;;;;;;;;;;;;2124238;28;19975;-45
2022/10/10 05:11:37;;;;;;;;;;;;;;;;;;2128470;27;20376;-46
2022/10/10 05:12:38;;;;;;;;;;;;;;;;;;2132872;27;20006;-45
2022/10/10 05:13:38;;;;;;;;;;;;;;;;;;2132619;27;20296;-45
2022/10/10 05:14:39;;;;;;;;;;;;;;;;;;2132503;27;19967;-45
2022/10/10 05:15:43;;;;;;;;;;;;;;;;;;2132492;27;20360;-46
2022/10/10 05:16:44;;;;;;;;;;;;;;;;;;2132651;27;19976;-43
2022/10/10 05:17:45;;;;;;;;;;;;;;;;;;2132518;27;20337;-43
2022/10/10 05:18:46;;;;;;;;;;;;;;;;;;2132530;27;19923;-43
2022/10/10 05:19:47;;;;;;;;;;;;;;;;;;2132600;27;19934;-43
2022/10/10 05:20:47;;;;;;;;;;;;;;;;;;2132678;27;19930;-43
2022/10/10 05:21:48;;;;;;;;;;;;;;;;;;2132646;27;19972;-43
2022/10/10 05:22:49;;;;;;;;;;;;;;;;;;2132478;27;19976;-43
2022/10/10 05:23:50;;;;;;;;;;;;;;;;;;2132679;27;19954;-43
2022/10/10 05:24:51;;;;;;;;;;;;;;;;;;2132620;27;20395;-42
2022/10/10 05:25:52;;;;;;;;;;;;;;;;;;2132472;27;20446;-43
2022/10/10 05:26:53;;;;;;;;;;;;;;;;;;2132554;27;19923;-43
2022/10/10 05:27:53;;;;;;;;;;;;;;;;;;2132208;27;20364;-43
2022/10/10 05:28:54;;;;;;;;;;;;;;;;;;2132506;27;19930;-43
2022/10/10 05:29:55;;;;;;;;;;;;;;;;;;2132539;27;20030;-43
2022/10/10 05:30:56;;;;;;;;;;;;;;;;;;2132622;27;20412;-43
2022/10/10 05:31:57;;;;;;;;;;;;;;;;;;2132540;27;19927;-43
2022/10/10 05:32:57;;;;;;;;;;;;;;;;;;2132664;27;20391;-43
2022/10/10 05:33:59;;;;;;;;;;;;;;;;;;2132503;27;20252;-43
2022/10/10 05:34:59;;;;;;;;;;;;;;;;;;2132446;27;19923;-43
2022/10/10 05:36:00;;;;;;;;;;;;;;;;;;2132649;27;19923;-46
2022/10/10 05:37:01;;;;;;;;;;;;;;;;;;2132347;27;19923;-45
2022/10/10 05:38:02;;;;;;;;;;;;;;;;;;2132382;27;20014;-46
2022/10/10 05:39:03;;;;;;;;;;;;;;;;;;2132670;27;20177;-45
2022/10/10 05:40:04;;;;;;;;;;;;;;;;;;2132492;27;20022;-45
2022/10/10 05:41:05;;;;;;;;;;;;;;;;;;2132369;27;20328;-46
2022/10/10 05:42:05;;;;;;;;;;;;;;;;;;2132643;27;19930;-43
2022/10/10 05:43:06;;;;;;;;;;;;;;;;;;2132435;27;20319;-43
2022/10/10 05:44:08;;;;;;;;;;;;;;;;;;2132477;27;20369;-43
2022/10/10 05:45:08;;;;;;;;;;;;;;;;;;2132385;27;19923;-43
2022/10/10 05:46:09;;;;;;;;;;;;;;;;;;2132286;27;20389;-43
2022/10/10 05:47:10;;;;;;;;;;;;;;;;;;2132355;27;19923;-43
2022/10/10 05:48:11;;;;;;;;;;;;;;;;;;2132594;27;20272;-43
2022/10/10 05:49:12;;;;;;;;;;;;;;;;;;2132715;27;19925;-45
2022/10/10 05:50:13;;;;;;;;;;;;;;;;;;2132819;27;19942;-43
2022/10/10 05:51:13;;;;;;;;;;;;;;;;;;2132777;27;20371;-43
2022/10/10 05:52:14;;;;;;;;;;;;;;;;;;2132267;27;19923;-43
2022/10/10 05:53:15;;;;;;;;;;;;;;;;;;2132330;27;20022;-43
2022/10/10 05:54:16;;;;;;;;;;;;;;;;;;2131793;27;19927;-43
2022/10/10 05:55:17;;;;;;;;;;;;;;;;;;2132259;27;19966;-43
2022/10/10 05:56:18;;;;;;;;;;;;;;;;;;2132294;27;19923;-43
2022/10/10 05:57:18;;;;;;;;;;;;;;;;;;2132195;27;19927;-43
2022/10/10 05:58:19;;;;;;;;;;;;;;;;;;2132785;27;19923;-45
2022/10/10 05:59:20;;;;;;;;;;;;;;;;;;2132490;27;19927;-43
2022/10/10 06:00:21;;;;;;;;;;;;;;;;;;2132392;27;19969;-43
2022/10/10 06:01:21;;;;;;;;;;;;;;;;;;2127332;27;19976;-43
2022/10/10 06:02:22;;;;;;;;;;;;;;;;;;2124050;28;19945;-45
2022/10/10 06:03:23;;;;;;;;;;;;;;;;;;2124021;28;20328;-43
2022/10/10 06:04:24;;;;;;;;;;;;;;;;;;2123827;28;20012;-43
2022/10/10 06:05:25;;;;;;;;;;;;;;;;;;2124024;28;20296;-44
2022/10/10 06:06:26;;;;;;;;;;;;;;;;;;2123609;27;20435;-45
2022/10/10 06:07:26;;;;;;;;;;;;;;;;;;2123769;28;19934;-45
2022/10/10 06:08:46;;;;;;;;;;;;;;;;;;2124270;28;19923;-45
2022/10/10 06:09:46;;;;;;;;;;;;;;;;;;2123744;28;20282;-45
2022/10/10 06:10:48;;;;;;;;;;;;;;;;;;2123781;28;20372;-43
2022/10/10 06:11:48;;;;;;;;;;;;;;;;;;2130077;27;19930;-46
2022/10/10 06:12:49;;;;;;;;;;;;;;;;;;2132196;27;20423;-45
2022/10/10 06:13:53;;;;;;;;;;;;;;;;;;2132147;27;20078;-45
2022/10/10 06:14:53;;;;;;;;;;;;;;;;;;2132330;27;20398;-43
2022/10/10 06:15:54;;;;;;;;;;;;;;;;;;2132113;27;19923;-43
2022/10/10 06:16:55;;;;;;;;;;;;;;;;;;2132359;27;20013;-43
2022/10/10 06:17:56;;;;;;;;;;;;;;;;;;2132443;27;20018;-44
2022/10/10 06:18:57;;;;;;;;;;;;;;;;;;2132117;27;19926;-45
2022/10/10 06:19:57;;;;;;;;;;;;;;;;;;2132079;27;19930;-45
2022/10/10 06:20:58;;;;;;;;;;;;;;;;;;2132304;27;19978;-45
2022/10/10 06:22:00;;;;;;;;;;;;;;;;;;2131997;27;19930;-45
2022/10/10 06:23:01;;;;;;;;;;;;;;;;;;2132232;27;19924;-45
2022/10/10 06:24:01;;;;;;;;;;;;;;;;;;2132202;27;19923;-45
2022/10/10 06:25:02;;;;;;;;;;;;;;;;;;2132008;27;19923;-47
2022/10/10 06:26:03;;;;;;;;;;;;;;;;;;2132047;27;20326;-44
2022/10/10 06:27:04;;;;;;;;;;;;;;;;;;2130939;27;19952;-43
2022/10/10 06:28:05;;;;;;;;;;;;;;;;;;2131089;27;19923;-44
2022/10/10 06:29:06;;;;;;;;;;;;;;;;;;2131990;27;19923;-43
2022/10/10 06:30:07;;;;;;;;;;;;;;;;;;2132084;27;19927;-43
2022/10/10 06:31:07;;;;;;;;;;;;;;;;;;2132092;27;19965;-43
2022/10/10 06:32:08;;;;;;;;;;;;;;;;;;2132254;27;20053;-43
2022/10/10 06:33:09;;;;;;;;;;;;;;;;;;2132088;27;19923;-43
2022/10/10 06:34:10;;;;;;;;;;;;;;;;;;2132000;27;20287;-43
2022/10/10 06:35:11;;;;;;;;;;;;;;;;;;2131986;27;19971;-43
2022/10/10 06:36:12;;;;;;;;;;;;;;;;;;2132164;27;19959;-43
2022/10/10 06:37:12;;;;;;;;;;;;;;;;;;2131922;27;19946;-43
2022/10/10 06:38:14;;;;;;;;;;;;;;;;;;2132252;27;20356;-45
2022/10/10 06:39:15;;;;;;;;;;;;;;;;;;2130850;27;19923;-45
2022/10/10 06:40:16;;;;;;;;;;;;;;;;;;2130904;27;20479;-45
2022/10/10 06:41:17;;;;;;;;;;;;;;;;;;2132328;27;19931;-43
2022/10/10 06:42:18;;;;;;;;;;;;;;;;;;2131823;27;19974;-45
2022/10/10 06:43:18;;;;;;;;;;;;;;;;;;2132032;27;19927;-45
2022/10/10 06:44:19;;;;;;;;;;;;;;;;;;2132102;27;19934;-43
2022/10/10 06:45:20;;;;;;;;;;;;;;;;;;2132088;27;20003;-43
2022/10/10 06:46:21;;;;;;;;;;;;;;;;;;2132349;27;20360;-43
2022/10/10 06:47:22;;;;;;;;;;;;;;;;;;2131972;27;20015;-43
2022/10/10 06:48:23;;;;;;;;;;;;;;;;;;2132345;27;19923;-44
2022/10/10 06:49:24;;;;;;;;;;;;;;;;;;2131999;27;19923;-48
2022/10/10 06:50:24;;;;;;;;;;;;;;;;;;2132340;27;19976;-45
2022/10/10 06:51:25;;;;;;;;;;;;;;;;;;2131891;27;19948;-45
2022/10/10 06:52:26;;;;;;;;;;;;;;;;;;2132678;27;20619;-43
2022/10/10 06:53:27;;;;;;;;;;;;;;;;;;2132085;27;19927;-43
2022/10/10 06:54:28;;;;;;;;;;;;;;;;;;2131876;27;19976;-45
2022/10/10 06:55:29;;;;;;;;;;;;;;;;;;2131970;27;19978;-44